sensor_id;sensor_type;location;lat;lon;timestamp;temperature;humidity
4002;DHT22;2015;48.670;9.060;2023-08-07T00:01:31;11.10;99.90
4002;DHT22;2015;48.670;9.060;2023-08-07T00:04:03;11.10;99.90
4002;DHT22;2015;48.670;9.060;2023-08-07T00:06:35;11.10;99.90
4002;DHT22;2015;48.670;9.060;2023-08-07T00:09:06;11.10;99.90
4002;DHT22;2015;48.670;9.060;2023-08-07T00:11:38;11.10;99.90
4002;DHT22;2015;48.670;9.060;2023-08-07T00:14:10;11.10;99.90
4002;DHT22;2015;48.670;9.060;2023-08-07T00:16:42;11.10;99.90
4002;DHT22;2015;48.670;9.060;2023-08-07T00:19:14;11.10;99.90
4002;DHT22;2015;48.670;9.060;2023-08-07T00:21:45;11.10;99.90
4002;DHT22;2015;48.670;9.060;2023-08-07T00:24:17;11.00;99.90
4002;DHT22;2015;48.670;9.060;2023-08-07T00:26:49;11.00;99.90
4002;DHT22;2015;48.670;9.060;2023-08-07T00:29:20;11.00;99.90
4002;DHT22;2015;48.670;9.060;2023-08-07T00:31:52;10.90;99.90
4002;DHT22;2015;48.670;9.060;2023-08-07T00:34:24;10.90;99.90
4002;DHT22;2015;48.670;9.060;2023-08-07T00:36:56;10.90;99.90
4002;DHT22;2015;48.670;9.060;2023-08-07T00:39:28;10.90;99.90
4002;DHT22;2015;48.670;9.060;2023-08-07T00:42:00;10.90;99.90
4002;DHT22;2015;48.670;9.060;2023-08-07T00:44:31;10.90;99.90
4002;DHT22;2015;48.670;9.060;2023-08-07T00:47:03;10.90;99.90
4002;DHT22;2015;48.670;9.060;2023-08-07T00:49:36;10.90;99.90
4002;DHT22;2015;48.670;9.060;2023-08-07T00:52:07;10.80;99.90
4002;DHT22;2015;48.670;9.060;2023-08-07T00:54:39;10.80;99.90
4002;DHT22;2015;48.670;9.060;2023-08-07T00:57:12;10.80;99.90
4002;DHT22;2015;48.670;9.060;2023-08-07T00:59:44;10.80;99.90
4002;DHT22;2015;48.670;9.060;2023-08-07T01:02:16;10.80;99.90
4002;DHT22;2015;48.670;9.060;2023-08-07T01:04:49;10.80;99.90
4002;DHT22;2015;48.670;9.060;2023-08-07T01:07:21;10.70;99.90
4002;DHT22;2015;48.670;9.060;2023-08-07T01:09:54;10.80;99.90
4002;DHT22;2015;48.670;9.060;2023-08-07T01:12:30;10.80;99.90
4002;DHT22;2015;48.670;9.060;2023-08-07T01:15:22;10.80;99.90
4002;DHT22;2015;48.670;9.060;2023-08-07T01:17:56;10.80;99.90
4002;DHT22;2015;48.670;9.060;2023-08-07T01:20:29;10.80;99.90
4002;DHT22;2015;48.670;9.060;2023-08-07T01:23:01;10.80;99.90
4002;DHT22;2015;48.670;9.060;2023-08-07T01:25:32;10.80;99.90
4002;DHT22;2015;48.670;9.060;2023-08-07T01:28:27;10.80;99.90
4002;DHT22;2015;48.670;9.060;2023-08-07T01:31:07;10.80;99.90
4002;DHT22;2015;48.670;9.060;2023-08-07T01:33:48;10.80;99.90
4002;DHT22;2015;48.670;9.060;2023-08-07T01:36:24;10.80;99.90
4002;DHT22;2015;48.670;9.060;2023-08-07T01:38:57;10.80;99.90
4002;DHT22;2015;48.670;9.060;2023-08-07T01:41:30;10.80;99.90
4002;DHT22;2015;48.670;9.060;2023-08-07T01:44:02;10.80;99.90
4002;DHT22;2015;48.670;9.060;2023-08-07T01:46:35;10.80;99.90
4002;DHT22;2015;48.670;9.060;2023-08-07T01:49:07;10.90;99.90
4002;DHT22;2015;48.670;9.060;2023-08-07T01:51:39;10.90;99.90
4002;DHT22;2015;48.670;9.060;2023-08-07T01:54:10;10.90;99.90
4002;DHT22;2015;48.670;9.060;2023-08-07T01:56:42;10.90;99.90
4002;DHT22;2015;48.670;9.060;2023-08-07T01:59:14;10.90;99.90
4002;DHT22;2015;48.670;9.060;2023-08-07T02:01:45;10.90;99.90
4002;DHT22;2015;48.670;9.060;2023-08-07T02:04:17;11.00;99.90
4002;DHT22;2015;48.670;9.060;2023-08-07T02:06:49;11.00;99.90
4002;DHT22;2015;48.670;9.060;2023-08-07T02:09:21;11.00;99.90
4002;DHT22;2015;48.670;9.060;2023-08-07T02:11:53;11.10;99.90
4002;DHT22;2015;48.670;9.060;2023-08-07T02:14:25;11.10;99.90
4002;DHT22;2015;48.670;9.060;2023-08-07T02:16:56;11.10;99.90
4002;DHT22;2015;48.670;9.060;2023-08-07T02:19:28;11.10;99.90
4002;DHT22;2015;48.670;9.060;2023-08-07T02:22:00;11.10;99.90
4002;DHT22;2015;48.670;9.060;2023-08-07T02:24:32;11.10;99.90
4002;DHT22;2015;48.670;9.060;2023-08-07T02:27:04;11.10;99.90
4002;DHT22;2015;48.670;9.060;2023-08-07T02:29:36;11.20;99.90
4002;DHT22;2015;48.670;9.060;2023-08-07T02:32:08;11.20;99.90
4002;DHT22;2015;48.670;9.060;2023-08-07T02:34:40;11.30;99.90
4002;DHT22;2015;48.670;9.060;2023-08-07T02:37:11;11.30;99.90
4002;DHT22;2015;48.670;9.060;2023-08-07T02:39:43;11.40;99.90
4002;DHT22;2015;48.670;9.060;2023-08-07T02:42:15;11.40;99.90
4002;DHT22;2015;48.670;9.060;2023-08-07T02:44:47;11.40;99.90
4002;DHT22;2015;48.670;9.060;2023-08-07T02:47:18;11.40;99.90
4002;DHT22;2015;48.670;9.060;2023-08-07T02:49:50;11.40;99.90
4002;DHT22;2015;48.670;9.060;2023-08-07T02:52:22;11.40;99.90
4002;DHT22;2015;48.670;9.060;2023-08-07T02:54:54;11.40;99.90
4002;DHT22;2015;48.670;9.060;2023-08-07T02:57:25;11.30;99.90
4002;DHT22;2015;48.670;9.060;2023-08-07T02:59:57;11.30;99.90
4002;DHT22;2015;48.670;9.060;2023-08-07T03:02:29;11.30;99.90
4002;DHT22;2015;48.670;9.060;2023-08-07T03:05:00;11.20;99.90
4002;DHT22;2015;48.670;9.060;2023-08-07T03:07:32;11.20;99.90
4002;DHT22;2015;48.670;9.060;2023-08-07T03:10:05;11.20;99.90
4002;DHT22;2015;48.670;9.060;2023-08-07T03:12:36;11.20;99.90
4002;DHT22;2015;48.670;9.060;2023-08-07T03:15:09;11.30;99.90
4002;DHT22;2015;48.670;9.060;2023-08-07T03:17:41;11.30;99.90
4002;DHT22;2015;48.670;9.060;2023-08-07T03:20:13;11.30;99.90
4002;DHT22;2015;48.670;9.060;2023-08-07T03:22:45;11.30;99.90
4002;DHT22;2015;48.670;9.060;2023-08-07T03:25:18;11.30;99.90
4002;DHT22;2015;48.670;9.060;2023-08-07T03:27:49;11.30;99.90
4002;DHT22;2015;48.670;9.060;2023-08-07T03:30:21;11.30;99.90
4002;DHT22;2015;48.670;9.060;2023-08-07T03:32:53;11.30;99.90
4002;DHT22;2015;48.670;9.060;2023-08-07T03:35:24;11.30;99.90
4002;DHT22;2015;48.670;9.060;2023-08-07T03:37:56;11.20;99.90
4002;DHT22;2015;48.670;9.060;2023-08-07T03:40:28;11.20;99.90
4002;DHT22;2015;48.670;9.060;2023-08-07T03:42:59;11.30;99.90
4002;DHT22;2015;48.670;9.060;2023-08-07T03:45:31;11.30;99.90
4002;DHT22;2015;48.670;9.060;2023-08-07T03:48:03;11.30;99.90
4002;DHT22;2015;48.670;9.060;2023-08-07T03:50:35;11.30;99.90
4002;DHT22;2015;48.670;9.060;2023-08-07T03:53:08;11.40;99.90
4002;DHT22;2015;48.670;9.060;2023-08-07T03:55:40;11.30;99.90
4002;DHT22;2015;48.670;9.060;2023-08-07T03:58:13;11.30;99.90
4002;DHT22;2015;48.670;9.060;2023-08-07T04:00:45;11.20;99.90
4002;DHT22;2015;48.670;9.060;2023-08-07T04:03:16;11.20;99.90
4002;DHT22;2015;48.670;9.060;2023-08-07T04:05:53;11.10;99.90
4002;DHT22;2015;48.670;9.060;2023-08-07T04:08:27;11.00;99.90
4002;DHT22;2015;48.670;9.060;2023-08-07T04:11:03;11.00;99.90
4002;DHT22;2015;48.670;9.060;2023-08-07T04:13:36;11.00;99.90
4002;DHT22;2015;48.670;9.060;2023-08-07T04:16:09;10.90;99.90
4002;DHT22;2015;48.670;9.060;2023-08-07T04:18:40;10.90;99.90
4002;DHT22;2015;48.670;9.060;2023-08-07T04:21:12;10.90;99.90
4002;DHT22;2015;48.670;9.060;2023-08-07T04:23:44;10.90;99.90
4002;DHT22;2015;48.670;9.060;2023-08-07T04:26:15;10.90;99.90
4002;DHT22;2015;48.670;9.060;2023-08-07T04:28:47;10.80;99.90
4002;DHT22;2015;48.670;9.060;2023-08-07T04:31:19;10.80;99.90
4002;DHT22;2015;48.670;9.060;2023-08-07T04:33:50;10.70;99.90
4002;DHT22;2015;48.670;9.060;2023-08-07T04:36:22;10.70;99.90
4002;DHT22;2015;48.670;9.060;2023-08-07T04:38:54;10.70;99.90
4002;DHT22;2015;48.670;9.060;2023-08-07T04:41:27;10.70;99.90
4002;DHT22;2015;48.670;9.060;2023-08-07T04:43:59;10.70;99.90
4002;DHT22;2015;48.670;9.060;2023-08-07T04:46:30;10.70;99.90
4002;DHT22;2015;48.670;9.060;2023-08-07T04:49:02;10.60;99.90
4002;DHT22;2015;48.670;9.060;2023-08-07T04:51:34;10.60;99.90
4002;DHT22;2015;48.670;9.060;2023-08-07T04:54:06;10.60;99.90
4002;DHT22;2015;48.670;9.060;2023-08-07T04:56:38;10.60;99.90
4002;DHT22;2015;48.670;9.060;2023-08-07T04:59:10;10.60;99.90
4002;DHT22;2015;48.670;9.060;2023-08-07T05:01:42;10.60;99.90
4002;DHT22;2015;48.670;9.060;2023-08-07T05:04:13;10.60;99.90
4002;DHT22;2015;48.670;9.060;2023-08-07T05:06:45;10.60;99.90
4002;DHT22;2015;48.670;9.060;2023-08-07T05:09:17;10.60;99.90
4002;DHT22;2015;48.670;9.060;2023-08-07T05:11:49;10.70;99.90
4002;DHT22;2015;48.670;9.060;2023-08-07T05:14:20;10.70;99.90
4002;DHT22;2015;48.670;9.060;2023-08-07T05:16:52;10.70;99.90
4002;DHT22;2015;48.670;9.060;2023-08-07T05:19:24;10.80;99.90
4002;DHT22;2015;48.670;9.060;2023-08-07T05:21:56;10.90;99.90
4002;DHT22;2015;48.670;9.060;2023-08-07T05:24:27;11.10;99.90
4002;DHT22;2015;48.670;9.060;2023-08-07T05:26:59;11.10;99.90
4002;DHT22;2015;48.670;9.060;2023-08-07T05:29:31;11.20;99.90
4002;DHT22;2015;48.670;9.060;2023-08-07T05:32:03;11.30;99.90
4002;DHT22;2015;48.670;9.060;2023-08-07T05:34:35;11.40;99.90
4002;DHT22;2015;48.670;9.060;2023-08-07T05:37:07;11.50;99.90
4002;DHT22;2015;48.670;9.060;2023-08-07T05:39:39;11.50;99.90
4002;DHT22;2015;48.670;9.060;2023-08-07T05:42:11;11.70;99.90
4002;DHT22;2015;48.670;9.060;2023-08-07T05:44:43;11.80;99.90
4002;DHT22;2015;48.670;9.060;2023-08-07T05:47:15;11.90;99.90
4002;DHT22;2015;48.670;9.060;2023-08-07T05:49:47;12.00;99.90
4002;DHT22;2015;48.670;9.060;2023-08-07T05:52:19;12.10;99.90
4002;DHT22;2015;48.670;9.060;2023-08-07T05:54:51;12.10;99.90
4002;DHT22;2015;48.670;9.060;2023-08-07T05:57:23;12.20;99.90
4002;DHT22;2015;48.670;9.060;2023-08-07T05:59:54;12.20;99.90
4002;DHT22;2015;48.670;9.060;2023-08-07T06:02:26;12.30;99.90
4002;DHT22;2015;48.670;9.060;2023-08-07T06:04:58;12.40;99.90
4002;DHT22;2015;48.670;9.060;2023-08-07T06:07:30;12.40;99.90
4002;DHT22;2015;48.670;9.060;2023-08-07T06:10:01;12.50;99.90
4002;DHT22;2015;48.670;9.060;2023-08-07T06:12:33;12.50;99.90
4002;DHT22;2015;48.670;9.060;2023-08-07T06:15:05;12.60;99.90
4002;DHT22;2015;48.670;9.060;2023-08-07T06:17:37;12.70;99.90
4002;DHT22;2015;48.670;9.060;2023-08-07T06:20:10;12.70;99.90
4002;DHT22;2015;48.670;9.060;2023-08-07T06:22:44;12.60;99.90
4002;DHT22;2015;48.670;9.060;2023-08-07T06:25:16;12.60;99.90
4002;DHT22;2015;48.670;9.060;2023-08-07T06:27:50;12.70;99.90
4002;DHT22;2015;48.670;9.060;2023-08-07T06:30:21;12.70;99.90
4002;DHT22;2015;48.670;9.060;2023-08-07T06:32:53;12.70;99.90
4002;DHT22;2015;48.670;9.060;2023-08-07T06:35:25;12.80;99.90
4002;DHT22;2015;48.670;9.060;2023-08-07T06:37:56;12.90;99.90
4002;DHT22;2015;48.670;9.060;2023-08-07T06:40:28;13.00;99.90
4002;DHT22;2015;48.670;9.060;2023-08-07T06:43:00;12.90;99.90
4002;DHT22;2015;48.670;9.060;2023-08-07T06:45:32;13.00;99.90
4002;DHT22;2015;48.670;9.060;2023-08-07T06:48:03;13.10;99.90
4002;DHT22;2015;48.670;9.060;2023-08-07T06:50:35;13.00;99.90
4002;DHT22;2015;48.670;9.060;2023-08-07T06:53:07;13.10;99.90
4002;DHT22;2015;48.670;9.060;2023-08-07T06:55:40;13.20;99.90
4002;DHT22;2015;48.670;9.060;2023-08-07T06:58:12;13.40;99.90
4002;DHT22;2015;48.670;9.060;2023-08-07T07:00:44;13.50;99.90
4002;DHT22;2015;48.670;9.060;2023-08-07T07:03:15;13.60;99.90
4002;DHT22;2015;48.670;9.060;2023-08-07T07:05:49;13.70;99.90
4002;DHT22;2015;48.670;9.060;2023-08-07T07:08:21;13.80;99.90
4002;DHT22;2015;48.670;9.060;2023-08-07T07:10:54;13.90;99.90
4002;DHT22;2015;48.670;9.060;2023-08-07T07:13:26;13.90;99.90
4002;DHT22;2015;48.670;9.060;2023-08-07T07:15:58;13.90;99.90
4002;DHT22;2015;48.670;9.060;2023-08-07T07:18:30;13.80;99.90
4002;DHT22;2015;48.670;9.060;2023-08-07T07:21:01;13.80;99.90
4002;DHT22;2015;48.670;9.060;2023-08-07T07:23:33;13.60;99.90
4002;DHT22;2015;48.670;9.060;2023-08-07T07:26:05;13.60;99.90
4002;DHT22;2015;48.670;9.060;2023-08-07T07:28:36;13.70;99.90
4002;DHT22;2015;48.670;9.060;2023-08-07T07:31:08;13.80;99.90
4002;DHT22;2015;48.670;9.060;2023-08-07T07:33:43;14.00;99.90
4002;DHT22;2015;48.670;9.060;2023-08-07T07:36:18;14.10;99.90
4002;DHT22;2015;48.670;9.060;2023-08-07T07:38:53;14.20;99.90
4002;DHT22;2015;48.670;9.060;2023-08-07T07:41:24;14.30;99.90
4002;DHT22;2015;48.670;9.060;2023-08-07T07:43:56;14.40;99.90
4002;DHT22;2015;48.670;9.060;2023-08-07T07:46:28;14.50;99.90
4002;DHT22;2015;48.670;9.060;2023-08-07T07:49:00;14.50;99.90
4002;DHT22;2015;48.670;9.060;2023-08-07T07:51:34;14.50;99.90
4002;DHT22;2015;48.670;9.060;2023-08-07T07:54:08;14.70;99.90
4002;DHT22;2015;48.670;9.060;2023-08-07T07:56:46;14.60;99.90
4002;DHT22;2015;48.670;9.060;2023-08-07T07:59:17;14.70;99.90
4002;DHT22;2015;48.670;9.060;2023-08-07T08:01:49;14.80;99.90
4002;DHT22;2015;48.670;9.060;2023-08-07T08:04:21;15.10;99.90
4002;DHT22;2015;48.670;9.060;2023-08-07T08:06:52;15.20;99.90
4002;DHT22;2015;48.670;9.060;2023-08-07T08:09:24;15.20;99.90
4002;DHT22;2015;48.670;9.060;2023-08-07T08:11:57;15.30;99.90
4002;DHT22;2015;48.670;9.060;2023-08-07T08:14:29;15.30;99.90
4002;DHT22;2015;48.670;9.060;2023-08-07T08:17:17;15.50;99.90
4002;DHT22;2015;48.670;9.060;2023-08-07T08:19:49;15.50;99.90
4002;DHT22;2015;48.670;9.060;2023-08-07T08:22:22;15.30;99.90
4002;DHT22;2015;48.670;9.060;2023-08-07T08:24:54;15.20;99.90
4002;DHT22;2015;48.670;9.060;2023-08-07T08:27:26;15.30;99.90
4002;DHT22;2015;48.670;9.060;2023-08-07T08:29:58;15.50;99.90
4002;DHT22;2015;48.670;9.060;2023-08-07T08:32:30;15.60;99.90
4002;DHT22;2015;48.670;9.060;2023-08-07T08:35:01;16.00;99.90
4002;DHT22;2015;48.670;9.060;2023-08-07T08:37:33;16.20;99.90
4002;DHT22;2015;48.670;9.060;2023-08-07T08:40:06;16.00;99.90
4002;DHT22;2015;48.670;9.060;2023-08-07T08:42:45;16.00;99.90
4002;DHT22;2015;48.670;9.060;2023-08-07T08:45:19;16.10;99.90
4002;DHT22;2015;48.670;9.060;2023-08-07T08:47:55;16.20;99.90
4002;DHT22;2015;48.670;9.060;2023-08-07T08:50:29;16.50;99.90
4002;DHT22;2015;48.670;9.060;2023-08-07T08:53:02;16.60;99.90
4002;DHT22;2015;48.670;9.060;2023-08-07T08:55:35;16.60;99.90
4002;DHT22;2015;48.670;9.060;2023-08-07T08:58:07;16.80;99.90
4002;DHT22;2015;48.670;9.060;2023-08-07T09:00:39;16.90;99.90
4002;DHT22;2015;48.670;9.060;2023-08-07T09:03:12;17.10;99.90
4002;DHT22;2015;48.670;9.060;2023-08-07T09:05:44;17.30;99.90
4002;DHT22;2015;48.670;9.060;2023-08-07T09:08:17;17.40;99.90
4002;DHT22;2015;48.670;9.060;2023-08-07T09:10:49;17.20;99.90
4002;DHT22;2015;48.670;9.060;2023-08-07T09:13:23;16.90;99.90
4002;DHT22;2015;48.670;9.060;2023-08-07T09:15:59;16.70;99.90
4002;DHT22;2015;48.670;9.060;2023-08-07T09:18:32;17.10;99.90
4002;DHT22;2015;48.670;9.060;2023-08-07T09:21:04;17.60;99.90
4002;DHT22;2015;48.670;9.060;2023-08-07T09:23:36;17.90;99.90
4002;DHT22;2015;48.670;9.060;2023-08-07T09:26:07;18.30;99.90
4002;DHT22;2015;48.670;9.060;2023-08-07T09:28:40;19.20;99.90
4002;DHT22;2015;48.670;9.060;2023-08-07T09:31:14;20.00;99.90
4002;DHT22;2015;48.670;9.060;2023-08-07T09:33:49;20.50;99.90
4002;DHT22;2015;48.670;9.060;2023-08-07T09:36:23;20.20;99.90
4002;DHT22;2015;48.670;9.060;2023-08-07T09:38:55;20.30;99.90
4002;DHT22;2015;48.670;9.060;2023-08-07T09:41:26;19.30;99.90
4002;DHT22;2015;48.670;9.060;2023-08-07T09:44:09;18.40;99.90
4002;DHT22;2015;48.670;9.060;2023-08-07T09:46:43;18.30;99.90
4002;DHT22;2015;48.670;9.060;2023-08-07T09:49:15;18.40;99.90
4002;DHT22;2015;48.670;9.060;2023-08-07T09:51:49;18.00;99.90
4002;DHT22;2015;48.670;9.060;2023-08-07T09:54:22;17.90;99.90
4002;DHT22;2015;48.670;9.060;2023-08-07T09:56:55;17.90;99.90
4002;DHT22;2015;48.670;9.060;2023-08-07T09:59:30;17.80;99.90
4002;DHT22;2015;48.670;9.060;2023-08-07T10:02:03;18.00;99.90
4002;DHT22;2015;48.670;9.060;2023-08-07T10:04:35;18.10;99.90
4002;DHT22;2015;48.670;9.060;2023-08-07T10:07:07;17.90;99.90
4002;DHT22;2015;48.670;9.060;2023-08-07T10:09:40;17.70;99.90
4002;DHT22;2015;48.670;9.060;2023-08-07T10:12:13;17.60;99.90
4002;DHT22;2015;48.670;9.060;2023-08-07T10:14:46;17.50;99.90
4002;DHT22;2015;48.670;9.060;2023-08-07T10:17:18;17.30;99.90
4002;DHT22;2015;48.670;9.060;2023-08-07T10:19:54;17.20;99.90
4002;DHT22;2015;48.670;9.060;2023-08-07T10:22:29;17.80;99.90
4002;DHT22;2015;48.670;9.060;2023-08-07T10:25:02;18.30;99.90
4002;DHT22;2015;48.670;9.060;2023-08-07T10:27:37;18.90;99.90
4002;DHT22;2015;48.670;9.060;2023-08-07T10:30:11;19.00;99.90
4002;DHT22;2015;48.670;9.060;2023-08-07T10:32:45;18.80;99.90
4002;DHT22;2015;48.670;9.060;2023-08-07T10:35:30;18.80;99.90
4002;DHT22;2015;48.670;9.060;2023-08-07T10:38:07;18.50;99.90
4002;DHT22;2015;48.670;9.060;2023-08-07T10:41:06;18.40;99.90
4002;DHT22;2015;48.670;9.060;2023-08-07T10:43:44;18.00;99.90
4002;DHT22;2015;48.670;9.060;2023-08-07T10:46:19;17.90;99.90
4002;DHT22;2015;48.670;9.060;2023-08-07T10:48:56;17.70;99.90
4002;DHT22;2015;48.670;9.060;2023-08-07T10:51:32;17.70;99.90
4002;DHT22;2015;48.670;9.060;2023-08-07T10:54:04;17.80;99.90
4002;DHT22;2015;48.670;9.060;2023-08-07T10:56:36;17.90;99.90
4002;DHT22;2015;48.670;9.060;2023-08-07T10:59:15;17.70;99.90
4002;DHT22;2015;48.670;9.060;2023-08-07T11:01:54;17.60;99.90
4002;DHT22;2015;48.670;9.060;2023-08-07T11:04:26;17.70;99.90
4002;DHT22;2015;48.670;9.060;2023-08-07T11:06:58;17.90;99.90
4002;DHT22;2015;48.670;9.060;2023-08-07T11:09:30;18.30;99.90
4002;DHT22;2015;48.670;9.060;2023-08-07T11:12:02;19.00;99.90
4002;DHT22;2015;48.670;9.060;2023-08-07T11:14:34;19.20;99.90
4002;DHT22;2015;48.670;9.060;2023-08-07T11:17:05;19.10;99.90
4002;DHT22;2015;48.670;9.060;2023-08-07T11:19:38;19.10;99.90
4002;DHT22;2015;48.670;9.060;2023-08-07T11:22:10;18.50;99.90
4002;DHT22;2015;48.670;9.060;2023-08-07T11:24:42;18.10;99.90
4002;DHT22;2015;48.670;9.060;2023-08-07T11:27:13;17.80;99.90
4002;DHT22;2015;48.670;9.060;2023-08-07T11:29:47;17.60;99.90
4002;DHT22;2015;48.670;9.060;2023-08-07T11:32:21;17.50;99.90
4002;DHT22;2015;48.670;9.060;2023-08-07T11:34:53;17.60;99.90
4002;DHT22;2015;48.670;9.060;2023-08-07T11:37:24;17.80;99.90
4002;DHT22;2015;48.670;9.060;2023-08-07T11:40:01;18.00;99.90
4002;DHT22;2015;48.670;9.060;2023-08-07T11:42:33;17.90;99.90
4002;DHT22;2015;48.670;9.060;2023-08-07T11:45:05;17.70;99.90
4002;DHT22;2015;48.670;9.060;2023-08-07T11:47:38;17.30;99.90
4002;DHT22;2015;48.670;9.060;2023-08-07T11:50:11;16.90;99.90
4002;DHT22;2015;48.670;9.060;2023-08-07T11:52:43;16.60;99.90
4002;DHT22;2015;48.670;9.060;2023-08-07T11:55:15;16.50;99.90
4002;DHT22;2015;48.670;9.060;2023-08-07T11:57:47;16.30;99.90
4002;DHT22;2015;48.670;9.060;2023-08-07T12:00:18;16.20;99.90
4002;DHT22;2015;48.670;9.060;2023-08-07T12:02:51;16.20;99.90
4002;DHT22;2015;48.670;9.060;2023-08-07T12:05:23;16.20;99.90
4002;DHT22;2015;48.670;9.060;2023-08-07T12:07:55;16.20;99.90
4002;DHT22;2015;48.670;9.060;2023-08-07T12:10:27;16.20;99.90
4002;DHT22;2015;48.670;9.060;2023-08-07T12:12:59;16.10;99.90
4002;DHT22;2015;48.670;9.060;2023-08-07T12:15:34;16.00;99.90
4002;DHT22;2015;48.670;9.060;2023-08-07T12:18:07;16.00;99.90
4002;DHT22;2015;48.670;9.060;2023-08-07T12:20:39;15.80;99.90
4002;DHT22;2015;48.670;9.060;2023-08-07T12:23:16;15.60;99.90
4002;DHT22;2015;48.670;9.060;2023-08-07T12:25:48;15.30;99.90
4002;DHT22;2015;48.670;9.060;2023-08-07T12:28:20;15.10;99.90
4002;DHT22;2015;48.670;9.060;2023-08-07T12:30:52;14.90;99.90
4002;DHT22;2015;48.670;9.060;2023-08-07T12:33:24;14.90;99.90
4002;DHT22;2015;48.670;9.060;2023-08-07T12:35:57;14.90;99.90
4002;DHT22;2015;48.670;9.060;2023-08-07T12:38:29;15.00;99.90
4002;DHT22;2015;48.670;9.060;2023-08-07T12:41:01;15.20;99.90
4002;DHT22;2015;48.670;9.060;2023-08-07T12:43:34;15.40;99.90
4002;DHT22;2015;48.670;9.060;2023-08-07T12:46:06;15.60;99.90
4002;DHT22;2015;48.670;9.060;2023-08-07T12:48:41;15.70;99.90
4002;DHT22;2015;48.670;9.060;2023-08-07T12:51:12;15.50;99.90
4002;DHT22;2015;48.670;9.060;2023-08-07T12:53:44;15.50;99.90
4002;DHT22;2015;48.670;9.060;2023-08-07T12:56:17;15.40;99.90
4002;DHT22;2015;48.670;9.060;2023-08-07T12:58:48;15.30;99.90
4002;DHT22;2015;48.670;9.060;2023-08-07T13:01:21;15.20;99.90
4002;DHT22;2015;48.670;9.060;2023-08-07T13:03:53;15.10;99.90
4002;DHT22;2015;48.670;9.060;2023-08-07T13:06:25;15.20;99.90
4002;DHT22;2015;48.670;9.060;2023-08-07T13:08:57;15.30;99.90
4002;DHT22;2015;48.670;9.060;2023-08-07T13:11:28;15.50;99.90
4002;DHT22;2015;48.670;9.060;2023-08-07T13:14:00;15.70;99.90
4002;DHT22;2015;48.670;9.060;2023-08-07T13:16:32;15.90;99.90
4002;DHT22;2015;48.670;9.060;2023-08-07T13:19:04;16.20;99.90
4002;DHT22;2015;48.670;9.060;2023-08-07T13:21:36;16.50;99.90
4002;DHT22;2015;48.670;9.060;2023-08-07T13:24:08;16.80;99.90
4002;DHT22;2015;48.670;9.060;2023-08-07T13:26:40;16.90;99.90
4002;DHT22;2015;48.670;9.060;2023-08-07T13:29:16;16.90;99.90
4002;DHT22;2015;48.670;9.060;2023-08-07T13:31:48;16.90;99.90
4002;DHT22;2015;48.670;9.060;2023-08-07T13:34:22;17.00;99.90
4002;DHT22;2015;48.670;9.060;2023-08-07T13:36:53;16.70;99.90
4002;DHT22;2015;48.670;9.060;2023-08-07T13:39:25;16.60;99.90
4002;DHT22;2015;48.670;9.060;2023-08-07T13:41:57;16.50;99.90
4002;DHT22;2015;48.670;9.060;2023-08-07T13:44:30;16.40;99.90
4002;DHT22;2015;48.670;9.060;2023-08-07T13:47:01;16.60;99.90
4002;DHT22;2015;48.670;9.060;2023-08-07T13:49:34;16.90;99.90
4002;DHT22;2015;48.670;9.060;2023-08-07T13:52:06;17.40;99.90
4002;DHT22;2015;48.670;9.060;2023-08-07T13:54:37;17.70;99.90
4002;DHT22;2015;48.670;9.060;2023-08-07T13:57:09;17.80;99.90
4002;DHT22;2015;48.670;9.060;2023-08-07T13:59:41;17.60;99.90
4002;DHT22;2015;48.670;9.060;2023-08-07T14:02:13;17.60;99.90
4002;DHT22;2015;48.670;9.060;2023-08-07T14:04:45;17.60;99.90
4002;DHT22;2015;48.670;9.060;2023-08-07T14:07:17;17.60;99.90
4002;DHT22;2015;48.670;9.060;2023-08-07T14:09:49;17.70;99.90
4002;DHT22;2015;48.670;9.060;2023-08-07T14:12:21;17.70;99.90
4002;DHT22;2015;48.670;9.060;2023-08-07T14:14:53;17.60;99.90
4002;DHT22;2015;48.670;9.060;2023-08-07T14:17:24;17.60;99.90
4002;DHT22;2015;48.670;9.060;2023-08-07T14:19:56;17.60;99.90
4002;DHT22;2015;48.670;9.060;2023-08-07T14:22:28;17.60;99.90
4002;DHT22;2015;48.670;9.060;2023-08-07T14:25:00;17.80;99.90
4002;DHT22;2015;48.670;9.060;2023-08-07T14:27:31;17.80;99.90
4002;DHT22;2015;48.670;9.060;2023-08-07T14:30:05;17.80;99.90
4002;DHT22;2015;48.670;9.060;2023-08-07T14:32:37;17.80;99.90
4002;DHT22;2015;48.670;9.060;2023-08-07T14:35:09;17.60;99.90
4002;DHT22;2015;48.670;9.060;2023-08-07T14:37:40;17.50;99.90
4002;DHT22;2015;48.670;9.060;2023-08-07T14:40:12;17.50;99.90
4002;DHT22;2015;48.670;9.060;2023-08-07T14:42:45;17.60;99.90
4002;DHT22;2015;48.670;9.060;2023-08-07T14:45:17;17.50;99.90
4002;DHT22;2015;48.670;9.060;2023-08-07T14:47:52;17.30;99.90
4002;DHT22;2015;48.670;9.060;2023-08-07T14:50:23;17.20;99.90
4002;DHT22;2015;48.670;9.060;2023-08-07T14:52:55;17.00;99.90
4002;DHT22;2015;48.670;9.060;2023-08-07T14:55:27;16.80;99.90
4002;DHT22;2015;48.670;9.060;2023-08-07T14:57:58;16.80;99.90
4002;DHT22;2015;48.670;9.060;2023-08-07T15:00:30;16.70;99.90
4002;DHT22;2015;48.670;9.060;2023-08-07T15:03:02;16.60;99.90
4002;DHT22;2015;48.670;9.060;2023-08-07T15:05:34;16.60;99.90
4002;DHT22;2015;48.670;9.060;2023-08-07T15:08:06;16.60;99.90
4002;DHT22;2015;48.670;9.060;2023-08-07T15:10:40;16.80;99.90
4002;DHT22;2015;48.670;9.060;2023-08-07T15:13:11;16.90;99.90
4002;DHT22;2015;48.670;9.060;2023-08-07T15:15:44;17.00;99.90
4002;DHT22;2015;48.670;9.060;2023-08-07T15:18:16;17.10;99.90
4002;DHT22;2015;48.670;9.060;2023-08-07T15:20:47;17.20;99.90
4002;DHT22;2015;48.670;9.060;2023-08-07T15:23:20;17.20;99.90
4002;DHT22;2015;48.670;9.060;2023-08-07T15:25:52;17.30;99.90
4002;DHT22;2015;48.670;9.060;2023-08-07T15:28:25;17.20;99.90
4002;DHT22;2015;48.670;9.060;2023-08-07T15:30:57;17.30;99.90
4002;DHT22;2015;48.670;9.060;2023-08-07T15:33:29;17.40;99.90
4002;DHT22;2015;48.670;9.060;2023-08-07T15:36:00;17.50;99.90
4002;DHT22;2015;48.670;9.060;2023-08-07T15:38:32;17.50;99.90
4002;DHT22;2015;48.670;9.060;2023-08-07T15:41:07;17.50;99.90
4002;DHT22;2015;48.670;9.060;2023-08-07T15:43:39;17.40;99.90
4002;DHT22;2015;48.670;9.060;2023-08-07T15:46:10;17.20;99.90
4002;DHT22;2015;48.670;9.060;2023-08-07T15:48:42;17.20;99.90
4002;DHT22;2015;48.670;9.060;2023-08-07T15:51:14;17.30;99.90
4002;DHT22;2015;48.670;9.060;2023-08-07T15:53:46;17.30;99.90
4002;DHT22;2015;48.670;9.060;2023-08-07T15:56:18;17.20;99.90
4002;DHT22;2015;48.670;9.060;2023-08-07T15:58:49;17.30;99.90
4002;DHT22;2015;48.670;9.060;2023-08-07T16:01:22;17.40;99.90
4002;DHT22;2015;48.670;9.060;2023-08-07T16:03:54;17.30;99.90
4002;DHT22;2015;48.670;9.060;2023-08-07T16:06:26;17.40;99.90
4002;DHT22;2015;48.670;9.060;2023-08-07T16:08:58;17.50;99.90
4002;DHT22;2015;48.670;9.060;2023-08-07T16:11:29;17.50;99.90
4002;DHT22;2015;48.670;9.060;2023-08-07T16:14:03;17.40;99.90
4002;DHT22;2015;48.670;9.060;2023-08-07T16:16:35;17.30;99.90
4002;DHT22;2015;48.670;9.060;2023-08-07T16:19:06;17.30;99.90
4002;DHT22;2015;48.670;9.060;2023-08-07T16:21:38;17.30;99.90
4002;DHT22;2015;48.670;9.060;2023-08-07T16:24:10;17.20;99.90
4002;DHT22;2015;48.670;9.060;2023-08-07T16:26:42;17.30;99.90
4002;DHT22;2015;48.670;9.060;2023-08-07T16:29:15;17.20;99.90
4002;DHT22;2015;48.670;9.060;2023-08-07T16:31:47;17.10;99.90
4002;DHT22;2015;48.670;9.060;2023-08-07T16:34:19;17.10;99.90
4002;DHT22;2015;48.670;9.060;2023-08-07T16:36:51;17.10;99.90